Fort Patrick Henry Observed Data For Previous 48 Hours

Caption
Day and Hour Reservoir Elevation (behind dam)* Tailwater Elevation (below dam)* Average Hourly Discharge*
3/22/2019 2 AM EDT 1,260.67 1,195.82 6,769
3/22/2019 3 AM EDT 1,260.62 1,192.83 3,636
3/22/2019 4 AM EDT 1,260.61 1,192.81 3,473
3/22/2019 5 AM EDT 1,260.65 1,192.84 3,489
3/22/2019 6 AM EDT 1,260.62 1,193.05 3,479
3/22/2019 7 AM EDT 1,260.77 1,195.77 6,439
3/22/2019 8 AM EDT 1,260.76 1,195.73 6,649
3/22/2019 9 AM EDT 1,260.81 1,195.82 6,679
3/22/2019 10 AM EDT 1,260.76 1,195.78 6,738
3/22/2019 11 AM EDT 1,260.77 1,195.75 6,640
3/22/2019 12 PM EDT 1,260.86 1,195.71 6,646
3/22/2019 1 PM EDT 1,260.82 1,195.79 6,677
3/22/2019 2 PM EDT 1,260.85 1,195.80 6,667
3/22/2019 3 PM EDT 1,260.87 1,195.80 6,678
3/22/2019 4 PM EDT 1,260.90 1,195.80 6,692
3/22/2019 5 PM EDT 1,260.88 1,195.79 6,697
3/22/2019 6 PM EDT 1,260.90 1,195.79 6,682
3/22/2019 7 PM EDT 1,260.90 1,195.79 6,670
3/22/2019 8 PM EDT 1,260.93 1,195.81 6,677
3/22/2019 9 PM EDT 1,260.95 1,195.76 6,653
3/22/2019 10 PM EDT 1,260.94 1,195.78 6,672
3/22/2019 11 PM EDT 1,260.90 1,195.83 6,681
3/23/2019 12 AM EDT 1,260.93 1,195.81 6,720
3/23/2019 1 AM EDT 1,260.59 1,195.83 6,749
3/23/2019 2 AM EDT 1,260.58 1,192.95 3,652
3/23/2019 3 AM EDT 1,260.59 1,192.94 3,584
3/23/2019 4 AM EDT 1,260.58 1,192.90 3,575
3/23/2019 5 AM EDT 1,260.57 1,192.93 3,586
3/23/2019 6 AM EDT 1,260.47 1,193.92 3,628
3/23/2019 7 AM EDT 1,260.21 1,195.80 6,705
3/23/2019 8 AM EDT 1,259.91 1,195.82 6,698
3/23/2019 9 AM EDT 1,259.91 1,195.79 6,701
3/23/2019 10 AM EDT 1,259.87 1,195.81 6,720
3/23/2019 11 AM EDT 1,259.86 1,195.86 6,714
3/23/2019 12 PM EDT 1,259.52 1,195.79 6,706
3/23/2019 1 PM EDT 1,259.50 1,192.93 3,647
3/23/2019 2 PM EDT 1,259.51 1,192.92 3,579
3/23/2019 3 PM EDT 1,259.52 1,192.93 3,591
3/23/2019 4 PM EDT 1,259.50 1,192.92 3,607
3/23/2019 5 PM EDT 1,259.49 1,192.94 3,604
3/23/2019 6 PM EDT 1,259.47 1,192.93 3,602
3/23/2019 7 PM EDT 1,259.45 1,192.92 3,597
3/23/2019 8 PM EDT 1,259.74 1,192.92 3,591
3/23/2019 9 PM EDT 1,260.10 1,192.92 3,589
3/23/2019 10 PM EDT 1,260.40 1,192.86 3,582
3/23/2019 11 PM EDT 1,260.37 1,192.82 3,475
3/24/2019 12 AM EDT 1,260.38 1,192.80 3,456
3/24/2019 1 AM EDT 1,260.39 1,192.78 3,465

Elevations are in feet above sea level. Discharges are in cubic feet per second and are reported at the end of the hour.